Time;durP1;ratioP1;P1;durP2;ratioP2;P2;SDS_P1;SDS_P2;PMS_P1;PMS_P2;Temp;Humidity;BMP_temperature;BMP_pressure;BME280_temperature;BME280_humidity;BME280_pressure;Samples;Min_cycle;Max_cycle;Signal;HPM_P1;HPM_P2
2022/04/28 00:01:21;;;;;;;;;11.00;10.33;;;26.76;97745.85;;;;116788;1197;25241;-50
2022/04/28 00:03:51;;;;;;;;;9.50;8.50;;;26.75;97749.11;;;;116775;1196;25529;-50
2022/04/28 00:06:24;;;;;;;;;16.00;12.00;;;26.76;97747.23;;;;116832;1197;25292;-52
2022/04/28 00:08:52;;;;;;;;;10.00;9.00;;;26.76;97747.56;;;;116800;1197;25125;-49
2022/04/28 00:11:26;;;;;;;;;10.75;8.00;;;26.76;97754.83;;;;116771;1197;25437;-52
2022/04/28 00:13:58;;;;;;;;;16.50;12.50;;;26.78;97755.77;;;;116791;1198;24912;-51
2022/04/28 00:16:29;;;;;;;;;9.00;9.00;;;26.74;97763.53;;;;116840;1197;25803;-54
2022/04/28 00:18:58;;;;;;;;;6.33;3.67;;;26.75;97762.60;;;;116731;1195;25553;-49
2022/04/28 00:21:29;;;;;;;;;9.00;9.00;;;26.72;97762.65;;;;116744;1197;25603;-49
2022/04/28 00:23:57;;;;;;;;;8.00;8.00;;;26.69;97766.50;;;;116802;1197;25759;-51
2022/04/28 00:26:28;;;;;;;;;14.00;11.33;;;26.69;97762.30;;;;116795;1197;25903;-56
2022/04/28 00:29:02;;;;;;;;;9.75;8.50;;;26.69;97754.40;;;;116738;1197;25488;-50
2022/04/28 00:31:34;;;;;;;;;12.67;11.00;;;26.68;97747.03;;;;116757;1196;25219;-55
2022/04/28 00:34:02;;;;;;;;;14.00;10.75;;;26.66;97744.55;;;;116823;1197;25231;-53
2022/04/28 00:36:34;;;;;;;;;9.33;9.00;;;26.67;97737.05;;;;116768;1196;25151;-57
2022/04/28 00:39:05;;;;;;;;;11.00;6.50;;;26.66;97727.63;;;;116738;1197;25047;-53
2022/04/28 00:41:36;;;;;;;;;7.00;6.00;;;26.65;97724.14;;;;116767;1196;25986;-51
2022/04/28 00:44:11;;;;;;;;;10.67;10.67;;;26.65;97728.50;;;;116754;1196;25169;-51
2022/04/28 00:46:42;;;;;;;;;8.00;8.00;;;26.65;97731.24;;;;116786;1197;25244;-51
2022/04/28 00:52:05;;;;;;;;;8.50;6.50;;;26.65;97726.44;;;;116538;1198;25443;-55
2022/04/28 00:54:37;;;;;;;;;7.50;5.50;;;26.64;97724.13;;;;116830;1197;25843;-48
2022/04/28 00:57:06;;;;;;;;;5.00;4.33;;;26.64;97722.86;;;;116738;1197;24812;-49
2022/04/28 00:59:43;;;;;;;;;10.33;6.33;;;26.64;97724.92;;;;116841;1196;25298;-55
2022/04/28 01:02:13;;;;;;;;;8.33;7.67;;;26.64;97725.48;;;;116776;1197;25571;-56
2022/04/28 01:04:47;;;;;;;;;6.75;6.25;;;26.62;97725.02;;;;116785;1198;25077;-56
2022/04/28 01:07:19;;;;;;;;;8.67;7.00;;;26.62;97726.36;;;;116788;1197;25305;-52
2022/04/28 01:09:46;;;;;;;;;9.67;9.67;;;26.61;97725.85;;;;116774;1196;25677;-55
2022/04/28 01:12:17;;;;;;;;;11.00;10.00;;;26.60;97722.52;;;;116817;1196;25055;-49
2022/04/28 01:14:51;;;;;;;;;8.00;7.00;;;26.62;97717.10;;;;116774;1197;25849;-53
2022/04/28 01:17:22;;;;;;;;;7.00;7.00;;;26.61;97710.61;;;;116805;1197;25192;-55
2022/04/28 01:19:50;;;;;;;;;8.50;7.00;;;26.60;97711.91;;;;116790;1197;25751;-49
2022/04/28 01:22:20;;;;;;;;;11.67;9.33;;;26.62;97709.69;;;;116806;1196;25449;-55
2022/04/28 01:24:50;;;;;;;;;7.75;7.75;;;26.66;97706.38;;;;116740;1197;25796;-52
2022/04/28 01:27:20;;;;;;;;;8.00;8.00;;;26.69;97695.17;;;;116754;1197;25183;-52
2022/04/28 01:29:48;;;;;;;;;7.00;7.00;;;26.73;97694.80;;;;116758;1197;25592;-51
2022/04/28 01:32:18;;;;;;;;;3.25;3.00;;;26.73;97690.14;;;;116848;1198;24983;-54
2022/04/28 01:34:46;;;;;;;;;6.50;6.50;;;26.77;97686.16;;;;116753;1197;25589;-53
2022/04/28 01:37:17;;;;;;;;;4.00;4.00;;;26.78;97686.45;;;;116745;1197;24919;-55
2022/04/28 01:39:45;;;;;;;;;8.25;7.50;;;26.79;97687.45;;;;116830;1197;26006;-49
2022/04/28 01:42:15;;;;;;;;;9.00;7.33;;;26.80;97690.02;;;;116803;1197;24793;-58
2022/04/28 01:44:43;;;;;;;;;5.75;5.75;;;26.82;97692.83;;;;116749;1197;25112;-51
2022/04/28 01:47:14;;;;;;;;;6.00;6.00;;;26.81;97692.41;;;;116755;1197;24792;-56
2022/04/28 01:49:42;;;;;;;;;9.00;7.67;;;26.81;97690.95;;;;116825;1197;24886;-52
2022/04/28 01:54:58;;;;;;;;;6.00;6.00;;;26.83;97683.98;;;;116804;1196;26462;-51
2022/04/28 01:57:28;;;;;;;;;12.50;7.75;;;26.82;97681.70;;;;116778;1197;24961;-53
2022/04/28 01:59:59;;;;;;;;;6.50;5.50;;;26.82;97679.61;;;;116749;1196;25075;-57
2022/04/28 02:02:27;;;;;;;;;6.33;6.33;;;26.81;97675.52;;;;116787;1197;24909;-49
2022/04/28 02:04:59;;;;;;;;;7.00;5.50;;;26.80;97676.22;;;;116812;1196;24846;-55
2022/04/28 02:07:30;;;;;;;;;6.67;6.67;;;26.81;97678.80;;;;116765;1197;25708;-55
2022/04/28 02:10:07;;;;;;;;;7.33;5.33;;;26.81;97681.40;;;;116678;1197;25380;-51
2022/04/28 02:12:35;;;;;;;;;7.50;6.75;;;26.81;97679.38;;;;116601;1198;25714;-52
2022/04/28 02:15:11;;;;;;;;;7.33;7.00;;;26.82;97675.19;;;;116483;1197;25366;-51
2022/04/28 02:17:41;;;;;;;;;5.00;5.00;;;26.80;97673.83;;;;116494;1197;25058;-51
2022/04/28 02:20:11;;;;;;;;;9.00;9.00;;;26.81;97673.69;;;;116714;1197;25653;-56
2022/04/28 02:22:39;;;;;;;;;5.00;5.00;;;26.79;97673.27;;;;116761;1197;25667;-51
2022/04/28 02:25:07;;;;;;;;;7.67;5.67;;;26.77;97670.47;;;;116761;1196;24824;-53
2022/04/28 02:27:41;;;;;;;;;7.67;7.67;;;26.76;97663.86;;;;116758;1197;24929;-55
2022/04/28 02:30:09;;;;;;;;;7.00;6.33;;;26.76;97666.54;;;;116743;1197;25067;-47
2022/04/28 02:35:28;;;;;;;;;6.00;5.00;;;26.74;97667.04;;;;116757;1197;25489;-54
2022/04/28 02:37:59;;;;;;;;;7.00;6.25;;;26.70;97666.99;;;;116770;1197;24848;-49
2022/04/28 02:40:27;;;;;;;;;8.50;7.50;;;26.69;97666.48;;;;116765;1197;25668;-54
2022/04/28 02:42:55;;;;;;;;;7.33;5.33;;;26.68;97662.88;;;;116766;1196;25643;-48
2022/04/28 02:45:23;;;;;;;;;8.50;5.00;;;26.68;97659.16;;;;116742;1197;26526;-52
2022/04/28 02:47:53;;;;;;;;;6.00;6.00;;;26.68;97658.92;;;;116811;1197;25298;-51
2022/04/28 02:50:21;;;;;;;;;5.00;5.00;;;26.68;97662.06;;;;116764;1196;25880;-55
2022/04/28 02:52:55;;;;;;;;;6.75;5.50;;;26.66;97663.58;;;;116807;1197;24818;-48
2022/04/28 02:55:23;;;;;;;;;6.33;6.33;;;26.67;97670.46;;;;116771;1196;25752;-49
2022/04/28 02:57:51;;;;;;;;;5.67;5.00;;;26.66;97670.48;;;;116747;1197;25586;-51
2022/04/28 03:00:19;;;;;;;;;4.00;4.00;;;26.65;97673.19;;;;116780;1197;25783;-49
2022/04/28 03:02:49;;;;;;;;;6.25;5.75;;;26.62;97672.28;;;;116758;1197;25583;-55
2022/04/28 03:05:18;;;;;;;;;5.00;5.00;;;26.61;97671.91;;;;116782;1197;25137;-51
2022/04/28 03:13:22;;;;;;;;;8.00;5.00;;;26.60;97679.51;;;;116739;1197;24920;-55
2022/04/28 03:15:52;;;;;;;;;6.25;5.00;;;26.59;97681.15;;;;116795;1197;25640;-56
2022/04/28 03:18:20;;;;;;;;;5.50;5.50;;;26.59;97682.39;;;;116769;1197;25011;-55
2022/04/28 03:20:48;;;;;;;;;5.75;5.00;;;26.58;97686.48;;;;116741;1197;25690;-56
2022/04/28 03:23:16;;;;;;;;;4.67;4.67;;;26.56;97690.19;;;;116744;1197;25411;-53
2022/04/28 03:25:46;;;;;;;;;12.00;7.00;;;26.54;97695.13;;;;116777;1196;25009;-55
2022/04/28 03:28:14;;;;;;;;;3.33;3.33;;;26.55;97697.72;;;;116774;1197;24841;-56
2022/04/28 03:30:43;;;;;;;;;7.00;4.75;;;26.56;97697.21;;;;116801;1198;25402;-49
2022/04/28 03:33:14;;;;;;;;;9.25;6.25;;;26.55;97691.61;;;;116606;1197;25375;-49
2022/04/28 03:35:43;;;;;;;;;7.67;5.00;;;26.56;97686.16;;;;116789;1196;24833;-55
2022/04/28 03:38:18;;;;;;;;;6.00;5.33;;;26.56;97686.25;;;;116801;1196;25151;-56
2022/04/28 03:41:35;;;;;;;;;5.50;4.00;;;26.55;97688.33;;;;116787;1197;25203;-51
2022/04/28 03:44:03;;;;;;;;;4.00;4.00;;;26.56;97686.16;;;;116747;1196;25318;-48
2022/04/28 03:46:32;;;;;;;;;7.75;5.50;;;26.52;97687.27;;;;116821;1197;25745;-50
2022/04/28 03:49:01;;;;;;;;;7.00;6.00;;;26.53;97690.48;;;;116808;1197;25677;-51
2022/04/28 03:51:29;;;;;;;;;4.00;4.00;;;26.52;97692.66;;;;116786;1198;25667;-48
2022/04/28 03:54:00;;;;;;;;;6.33;6.00;;;26.52;97691.86;;;;116799;1197;25012;-50
2022/04/28 03:56:33;;;;;;;;;7.00;5.00;;;26.60;97691.31;;;;116774;1197;25508;-53
2022/04/28 03:59:02;;;;;;;;;4.50;4.50;;;26.59;97695.34;;;;116690;1197;25618;-55
2022/04/28 04:01:30;;;;;;;;;5.25;5.25;;;26.59;97697.13;;;;116907;1196;25259;-48
2022/04/28 04:03:58;;;;;;;;;7.25;6.00;;;26.65;97697.69;;;;116534;1197;25050;-52
2022/04/28 04:06:31;;;;;;;;;10.00;7.00;;;26.66;97694.91;;;;116843;1197;25771;-48
2022/04/28 04:09:00;;;;;;;;;8.25;6.75;;;26.69;97696.79;;;;116745;1196;24864;-54
2022/04/28 04:11:30;;;;;;;;;6.67;6.67;;;26.68;97700.47;;;;116738;1197;24913;-52
2022/04/28 04:14:01;;;;;;;;;7.50;5.75;;;26.69;97703.33;;;;116746;1197;26099;-54
2022/04/28 04:16:31;;;;;;;;;4.75;4.75;;;26.71;97703.59;;;;116750;1196;25709;-52
2022/04/28 04:19:02;;;;;;;;;9.00;8.75;;;26.73;97706.22;;;;116721;1197;24844;-50
2022/04/28 04:21:37;;;;;;;;;7.00;4.00;;;26.74;97707.57;;;;116809;1197;25134;-55
2022/04/28 04:24:07;;;;;;;;;5.00;5.00;;;26.82;97708.05;;;;116768;1197;25393;-53
2022/04/28 04:26:36;;;;;;;;;7.33;6.33;;;26.81;97709.15;;;;116797;1198;25660;-56
2022/04/28 04:29:04;;;;;;;;;9.00;5.33;;;26.81;97710.78;;;;116805;1196;25054;-54
2022/04/28 04:34:20;;;;;;;;;7.50;6.25;;;26.85;97711.59;;;;116746;1197;24850;-54
2022/04/28 04:36:48;;;;;;;;;9.00;8.00;;;26.84;97711.98;;;;116720;1197;25430;-53
2022/04/28 04:39:16;;;;;;;;;9.00;6.75;;;26.86;97713.98;;;;116745;1196;25551;-57
2022/04/28 04:41:44;;;;;;;;;10.00;8.00;;;26.90;97716.64;;;;116735;1197;25041;-49
2022/04/28 04:44:18;;;;;;;;;13.33;10.67;;;26.94;97712.59;;;;116725;1196;24799;-49
2022/04/28 04:46:47;;;;;;;;;15.00;14.00;;;27.00;97711.02;;;;116777;1196;24750;-57
2022/04/28 04:49:15;;;;;;;;;15.50;12.00;;;27.03;97713.16;;;;116783;1197;25462;-51
2022/04/28 04:51:44;;;;;;;;;17.67;10.67;;;27.04;97713.55;;;;116751;1198;24759;-54
2022/04/28 04:54:12;;;;;;;;;25.00;13.50;;;27.06;97712.64;;;;116783;1197;24887;-59
2022/04/28 04:56:42;;;;;;;;;14.67;10.67;;;27.07;97711.14;;;;116712;1197;24969;-50
2022/04/28 04:59:11;;;;;;;;;13.33;9.67;;;27.09;97713.98;;;;116714;1196;25081;-52
2022/04/28 05:01:41;;;;;;;;;11.25;11.25;;;27.10;97713.25;;;;116741;1197;24846;-49
2022/04/28 05:04:10;;;;;;;;;13.50;9.50;;;27.10;97715.31;;;;116752;1198;25679;-52
2022/04/28 05:06:41;;;;;;;;;12.00;9.50;;;27.11;97718.67;;;;116718;1198;25384;-52
2022/04/28 05:09:13;;;;;;;;;16.00;10.33;;;27.09;97717.66;;;;116794;1196;25345;-55
2022/04/28 05:11:41;;;;;;;;;19.50;14.50;;;27.11;97718.12;;;;116794;1198;25708;-54
2022/04/28 05:14:09;;;;;;;;;13.00;10.50;;;27.13;97719.76;;;;116735;1196;24945;-51
2022/04/28 05:16:37;;;;;;;;;18.00;10.50;;;27.15;97720.77;;;;116504;1196;25234;-48
2022/04/28 05:19:05;;;;;;;;;14.00;11.00;;;27.21;97725.50;;;;116552;1197;25440;-51
2022/04/28 05:21:33;;;;;;;;;14.00;8.25;;;27.23;97728.17;;;;116671;1196;25263;-55
2022/04/28 05:24:00;;;;;;;;;13.00;9.25;;;27.33;97731.52;;;;116711;1196;25681;-50
2022/04/28 05:26:28;;;;;;;;;11.00;10.33;;;27.38;97731.13;;;;116687;1197;25315;-52
2022/04/28 05:29:02;;;;;;;;;15.00;11.00;;;27.38;97732.64;;;;116740;1196;25607;-54
2022/04/28 05:31:36;;;;;;;;;11.33;10.33;;;27.37;97734.11;;;;116774;1198;25570;-51
2022/04/28 05:34:06;;;;;;;;;13.25;11.50;;;27.40;97734.91;;;;117686;1196;25602;-48
2022/04/28 05:36:36;;;;;;;;;13.33;11.67;;;27.61;97730.53;;;;116953;1197;25050;-48
2022/04/28 05:39:04;;;;;;;;;11.50;10.50;;;27.67;97733.75;;;;116440;1196;25614;-52
2022/04/28 05:41:34;;;;;;;;;9.67;9.67;;;27.51;97734.86;;;;116725;1195;25006;-44
2022/04/28 05:46:52;;;;;;;;;16.00;12.67;;;27.30;97740.34;;;;116705;1197;24779;-48
2022/04/28 05:49:21;;;;;;;;;12.00;9.50;;;27.20;97741.92;;;;116786;1198;26098;-50
2022/04/28 05:51:52;;;;;;;;;15.67;13.00;;;27.10;97740.56;;;;116793;1198;25444;-48
2022/04/28 05:54:22;;;;;;;;;15.25;11.75;;;27.04;97742.98;;;;116849;1196;25532;-52
2022/04/28 05:56:52;;;;;;;;;12.33;12.33;;;26.99;97743.14;;;;116621;1197;25260;-51
2022/04/28 05:59:23;;;;;;;;;14.00;9.00;;;26.90;97744.50;;;;116688;1197;24805;-48
2022/04/28 06:01:56;;;;;;;;;19.00;17.67;;;26.84;97744.78;;;;116756;1198;25442;-52
2022/04/28 06:04:26;;;;;;;;;22.67;19.00;;;26.79;97745.66;;;;116668;1198;25249;-55
2022/04/28 06:06:58;;;;;;;;;36.00;27.67;;;26.73;97747.82;;;;116718;1196;25440;-52
2022/04/28 06:09:29;;;;;;;;;20.00;17.00;;;26.69;97752.83;;;;116669;1197;25082;-52
2022/04/28 06:12:01;;;;;;;;;19.50;16.00;;;26.65;97752.12;;;;116803;1197;25503;-51
2022/04/28 06:14:29;;;;;;;;;31.00;26.50;;;26.62;97750.89;;;;116758;1197;25544;-55
2022/04/28 06:16:59;;;;;;;;;29.00;22.33;;;26.58;97756.48;;;;116705;1197;25297;-48
2022/04/28 06:19:29;;;;;;;;;28.00;25.67;;;26.52;97754.98;;;;116805;1197;25505;-52
2022/04/28 06:21:59;;;;;;;;;22.00;20.00;;;26.50;97756.29;;;;116764;1196;25546;-49
2022/04/28 06:24:31;;;;;;;;;25.00;19.00;;;26.47;97756.83;;;;116773;1196;25018;-53
2022/04/28 06:27:03;;;;;;;;;19.00;17.67;;;26.48;97759.02;;;;116669;1196;25401;-54
2022/04/28 06:29:31;;;;;;;;;19.33;17.67;;;26.41;97755.50;;;;116666;1198;25509;-52
2022/04/28 06:32:04;;;;;;;;;25.33;18.00;;;26.36;97756.23;;;;116626;1196;26078;-52
2022/04/28 06:34:33;;;;;;;;;21.33;16.00;;;26.37;97754.70;;;;116546;1196;25367;-49
2022/04/28 06:37:05;;;;;;;;;17.00;13.00;;;26.33;97755.07;;;;116666;1197;25268;-54
2022/04/28 06:39:36;;;;;;;;;17.33;15.00;;;26.34;97754.70;;;;116542;1196;25096;-49
2022/04/28 06:42:04;;;;;;;;;15.67;15.33;;;26.31;97754.21;;;;116742;1197;24819;-52
2022/04/28 06:44:39;;;;;;;;;16.33;14.67;;;26.27;97752.80;;;;116695;1197;25435;-50
2022/04/28 06:47:07;;;;;;;;;15.33;13.67;;;26.24;97753.93;;;;116707;1197;25556;-53
2022/04/28 06:49:37;;;;;;;;;13.00;12.67;;;26.18;97753.76;;;;116783;1197;25633;-46
2022/04/28 06:52:06;;;;;;;;;17.67;13.33;;;26.21;97752.90;;;;116779;1197;26226;-50
2022/04/28 06:54:34;;;;;;;;;20.00;15.50;;;26.21;97753.16;;;;116820;1198;25363;-50
2022/04/28 06:57:03;;;;;;;;;14.75;13.00;;;26.16;97752.13;;;;116734;1198;25418;-49
2022/04/28 06:59:31;;;;;;;;;12.50;12.50;;;26.10;97755.52;;;;116740;1196;24941;-51
2022/04/28 07:02:00;;;;;;;;;11.67;11.00;;;26.02;97755.23;;;;116755;1197;25667;-53
2022/04/28 07:04:30;;;;;;;;;12.25;11.25;;;26.01;97753.20;;;;116764;1197;25895;-60
2022/04/28 07:07:03;;;;;;;;;12.25;11.75;;;26.00;97752.08;;;;116817;1196;25244;-53
2022/04/28 14:20:33;;;;;;;;;2.75;2.00;;;25.37;97977.91;;;;116124;1206;23236;-61
2022/04/28 14:23:03;;;;;;;;;2.50;2.00;;;25.77;97983.48;;;;117126;1194;24802;-62
2022/04/28 14:25:36;;;;;;;;;2.75;2.00;;;26.20;97981.41;;;;117033;1194;24890;-61
2022/04/28 14:28:13;;;;;;;;;3.00;1.33;;;26.42;97981.77;;;;117097;1194;25823;-64
2022/04/28 14:30:44;;;;;;;;;2.75;1.00;;;26.65;97980.82;;;;117349;1194;25164;-64
2022/04/28 14:33:34;;;;;;;;;1.25;1.25;;;26.98;97975.39;;;;117120;1193;25872;-65
2022/04/28 14:36:05;;;;;;;;;2.25;2.25;;;27.08;97976.25;;;;117104;1193;25571;-66
2022/04/28 14:38:37;;;;;;;;;0.75;0.75;;;27.18;97982.35;;;;117131;1193;25347;-62
2022/04/28 14:41:12;;;;;;;;;1.00;1.00;;;27.26;97988.21;;;;118108;1187;24761;-62
2022/04/28 14:43:40;;;;;;;;;0.00;0.00;;;27.31;97994.48;;;;118184;1187;25825;-63
2022/04/28 14:46:12;;;;;;;;;1.00;1.00;;;27.40;97995.54;;;;117806;1187;26376;-66
2022/04/28 14:54:29;;;;;;;;;1.75;0.50;;;27.31;98003.91;;;;117906;1187;24827;-62
2022/04/28 14:56:57;;;;;;;;;3.67;2.00;;;27.29;98003.36;;;;117439;1187;25619;-65
2022/04/28 14:59:25;;;;;;;;;4.25;2.50;;;27.30;98005.02;;;;117804;1186;24984;-62
2022/04/28 15:01:59;;;;;;;;;5.33;4.00;;;27.27;98005.94;;;;117922;1186;25514;-63
2022/04/28 15:04:27;;;;;;;;;6.33;3.33;;;27.31;98013.70;;;;117902;1186;25689;-63
2022/04/28 15:06:57;;;;;;;;;7.50;2.50;;;27.35;98011.95;;;;117836;1187;25605;-64
2022/04/28 15:09:26;;;;;;;;;8.33;3.00;;;27.34;98014.38;;;;118241;1186;25240;-62
2022/04/28 15:11:54;;;;;;;;;14.33;7.00;;;27.49;98013.06;;;;117778;1187;25642;-64
2022/04/28 15:14:22;;;;;;;;;12.75;7.00;;;27.49;98008.80;;;;117464;1187;25397;-62
2022/04/28 15:16:56;;;;;;;;;7.00;5.50;;;27.50;98011.37;;;;117935;1186;26120;-64
2022/04/28 15:19:28;;;;;;;;;4.50;3.75;;;27.55;98011.73;;;;117973;1188;25506;-66
2022/04/28 15:21:56;;;;;;;;;6.50;3.25;;;27.61;98005.34;;;;118198;1188;24898;-67
2022/04/28 15:24:24;;;;;;;;;3.50;3.50;;;27.71;98007.62;;;;118023;1187;25546;-63
2022/04/28 15:26:57;;;;;;;;;4.67;4.33;;;27.66;98004.92;;;;118030;1186;25756;-67
2022/04/28 15:29:28;;;;;;;;;6.00;4.67;;;27.67;98006.71;;;;117854;1188;25465;-64
2022/04/28 15:31:58;;;;;;;;;7.33;4.00;;;27.64;98006.70;;;;117782;1189;25097;-66
2022/04/28 15:34:32;;;;;;;;;5.75;4.25;;;27.77;98005.50;;;;118096;1188;25514;-64
2022/04/28 15:37:08;;;;;;;;;7.67;4.00;;;27.83;98008.52;;;;118058;1188;25376;-65
2022/04/28 15:39:38;;;;;;;;;5.00;4.00;;;27.87;98009.23;;;;118026;1187;25852;-66
2022/04/28 15:42:11;;;;;;;;;6.00;3.75;;;27.86;98010.80;;;;118041;1186;24785;-63
2022/04/28 15:44:41;;;;;;;;;4.75;4.00;;;27.85;98012.64;;;;117863;1186;25097;-62
2022/04/28 15:47:11;;;;;;;;;5.50;4.00;;;27.81;98011.02;;;;117452;1190;25160;-65
2022/04/28 15:49:44;;;;;;;;;5.25;4.00;;;27.78;98011.15;;;;118077;1188;24919;-66
2022/04/28 15:52:12;;;;;;;;;7.50;5.00;;;27.80;98014.34;;;;117432;1189;25008;-63
2022/04/28 15:54:40;;;;;;;;;10.25;4.00;;;27.77;98015.23;;;;117877;1188;24856;-64
2022/04/28 15:57:11;;;;;;;;;5.00;4.00;;;27.72;98014.95;;;;118031;1188;25018;-69
2022/04/28 15:59:40;;;;;;;;;4.00;4.00;;;27.72;98017.97;;;;117885;1186;25852;-65
2022/04/28 16:02:15;;;;;;;;;5.25;3.50;;;27.71;98018.45;;;;118045;1186;26402;-67
2022/04/28 16:04:49;;;;;;;;;5.75;3.25;;;27.70;98017.77;;;;117965;1188;25713;-66
2022/04/28 16:07:21;;;;;;;;;7.50;2.50;;;27.69;98017.92;;;;118033;1186;25221;-64
2022/04/28 16:09:49;;;;;;;;;6.50;3.25;;;27.70;98017.87;;;;117796;1189;24817;-63
2022/04/28 16:12:19;;;;;;;;;4.00;2.50;;;27.76;98020.41;;;;117948;1186;24880;-66
2022/04/28 16:14:52;;;;;;;;;2.00;2.00;;;27.67;98023.19;;;;117986;1186;24863;-66
2022/04/28 16:17:23;;;;;;;;;4.00;4.00;;;27.68;98026.20;;;;118016;1188;25680;-65
2022/04/28 16:19:51;;;;;;;;;4.00;2.33;;;27.64;98029.77;;;;117754;1188;25008;-65
2022/04/28 16:22:20;;;;;;;;;3.25;3.25;;;27.70;98029.91;;;;118010;1188;25394;-65
2022/04/28 16:24:53;;;;;;;;;6.67;4.00;;;27.64;98030.23;;;;117901;1188;24925;-63
2022/04/28 16:27:24;;;;;;;;;10.75;4.00;;;27.57;98033.35;;;;118053;1187;25950;-62
2022/04/28 16:29:57;;;;;;;;;5.00;3.67;;;27.61;98030.42;;;;117455;1188;25053;-62
2022/04/28 16:32:33;;;;;;;;;4.50;2.25;;;27.56;98034.26;;;;118073;1188;25337;-62
2022/04/28 16:35:06;;;;;;;;;3.00;2.75;;;27.66;98036.69;;;;118006;1186;24888;-63
2022/04/28 16:37:36;;;;;;;;;6.25;4.25;;;27.70;98038.35;;;;117469;1190;25020;-65
2022/04/28 16:40:08;;;;;;;;;3.00;2.50;;;27.69;98040.75;;;;117979;1188;24739;-65
2022/04/28 16:42:36;;;;;;;;;2.00;2.00;;;27.68;98042.29;;;;117737;1187;25470;-64
2022/04/28 16:45:06;;;;;;;;;2.25;2.25;;;27.64;98046.63;;;;117841;1188;24701;-63
2022/04/28 16:47:35;;;;;;;;;3.00;1.25;;;27.63;98049.78;;;;117773;1187;25744;-63
2022/04/28 16:50:17;;;;;;;;;7.25;4.00;;;27.63;98050.89;;;;118099;1188;24728;-62
2022/04/28 16:52:50;;;;;;;;;4.50;2.75;;;27.75;98049.50;;;;117948;1186;25283;-65
2022/04/28 16:55:24;;;;;;;;;5.33;4.00;;;27.76;98055.52;;;;117840;1188;25256;-64
2022/04/28 16:57:57;;;;;;;;;5.00;3.00;;;27.70;98059.63;;;;117541;1188;25655;-65
2022/04/28 17:00:47;;;;;;;;;4.00;4.00;;;27.77;98064.29;;;;117890;1188;25107;-65
2022/04/28 17:06:14;;;;;;;;;3.50;2.25;;;27.80;98068.33;;;;117643;1188;25829;-64
2022/04/28 17:08:44;;;;;;;;;6.75;3.25;;;27.72;98065.27;;;;117889;1188;25645;-64
2022/04/28 17:11:20;;;;;;;;;4.00;3.67;;;27.69;98067.55;;;;118124;1186;25389;-64
2022/04/28 17:13:53;;;;;;;;;4.00;3.75;;;27.79;98073.31;;;;117538;1188;25047;-65
2022/04/28 17:16:25;;;;;;;;;4.00;3.33;;;27.76;98072.45;;;;117855;1186;24810;-65
2022/04/28 17:18:53;;;;;;;;;5.00;3.00;;;27.72;98077.21;;;;117390;1189;24828;-63
2022/04/28 17:21:21;;;;;;;;;5.75;3.00;;;27.68;98078.89;;;;117876;1186;24992;-65
2022/04/28 17:23:53;;;;;;;;;3.00;3.00;;;27.69;98081.00;;;;117858;1187;25747;-64
2022/04/28 17:26:23;;;;;;;;;4.00;3.00;;;27.68;98080.70;;;;117986;1186;25709;-64
2022/04/28 17:28:55;;;;;;;;;4.00;4.00;;;27.74;98085.49;;;;117979;1188;25471;-64
2022/04/28 17:31:25;;;;;;;;;3.25;3.25;;;27.80;98087.17;;;;117530;1188;25045;-63
2022/04/28 17:33:58;;;;;;;;;3.50;2.25;;;27.83;98091.81;;;;117673;1189;25497;-64
2022/04/28 17:36:31;;;;;;;;;4.25;3.75;;;27.89;98098.69;;;;117951;1188;25637;-62
2022/04/28 17:39:02;;;;;;;;;2.67;2.00;;;27.91;98098.66;;;;118017;1187;24810;-64
2022/04/28 17:41:36;;;;;;;;;3.00;3.00;;;27.94;98103.69;;;;117615;1186;25462;-64
2022/04/28 17:44:09;;;;;;;;;8.67;5.67;;;27.99;98103.21;;;;117867;1187;26263;-65
2022/04/28 17:46:43;;;;;;;;;5.00;3.00;;;27.96;98105.51;;;;117975;1188;25237;-61
2022/04/28 17:49:12;;;;;;;;;3.00;3.00;;;27.96;98108.75;;;;117947;1186;25064;-64
2022/04/28 17:51:45;;;;;;;;;3.00;3.00;;;27.95;98113.77;;;;117597;1188;25651;-62
2022/04/28 17:54:15;;;;;;;;;4.00;4.00;;;27.96;98116.35;;;;117786;1188;25933;-63
2022/04/28 18:00:10;;;;;;;;;5.00;4.00;;;27.91;98125.09;;;;117727;1187;25273;-63
2022/04/28 18:02:32;;;;;;;;;3.00;2.75;;;27.99;98128.30;;;;117954;1187;25575;-63
2022/04/28 18:05:06;;;;;;;;;6.25;4.00;;;27.98;98131.61;;;;118225;1186;25004;-65
2022/04/28 18:07:36;;;;;;;;;4.00;4.00;;;28.05;98133.16;;;;117997;1188;24997;-64
2022/04/28 18:10:06;;;;;;;;;2.75;2.75;;;28.00;98135.98;;;;117929;1188;25958;-63
2022/04/28 18:12:36;;;;;;;;;3.00;3.00;;;27.95;98143.44;;;;117927;1188;25428;-63
2022/04/28 18:15:11;;;;;;;;;4.00;2.75;;;27.91;98148.11;;;;117818;1186;25401;-63
2022/04/28 18:17:39;;;;;;;;;3.00;3.00;;;27.87;98151.86;;;;117881;1187;25325;-64
2022/04/28 18:20:13;;;;;;;;;3.00;3.00;;;27.83;98157.20;;;;117868;1186;25274;-62
2022/04/28 18:22:45;;;;;;;;;1.75;1.75;;;27.79;98159.26;;;;117378;1189;25630;-62
2022/04/28 18:25:18;;;;;;;;;1.00;1.00;;;27.76;98162.31;;;;117549;1188;25722;-63
2022/04/28 18:27:51;;;;;;;;;6.75;3.00;;;27.81;98166.13;;;;117820;1186;25821;-63
2022/04/28 18:30:23;;;;;;;;;3.00;3.00;;;27.77;98168.91;;;;117856;1186;25767;-63
2022/04/28 18:32:54;;;;;;;;;3.00;3.00;;;27.76;98173.38;;;;117894;1188;24917;-62
2022/04/28 18:46:44;;;;;;;;;2.00;2.00;;;27.66;98183.27;;;;117813;1187;25265;-64
2022/04/28 18:49:17;;;;;;;;;3.75;3.00;;;27.63;98185.13;;;;117945;1187;25109;-64
2022/04/28 18:51:48;;;;;;;;;3.50;3.50;;;27.64;98185.43;;;;117892;1188;25075;-65
2022/04/28 18:54:20;;;;;;;;;4.00;3.00;;;27.67;98188.02;;;;117803;1187;25551;-63
2022/04/28 18:56:51;;;;;;;;;4.00;3.00;;;27.65;98192.24;;;;117537;1188;26447;-64
2022/04/28 18:59:23;;;;;;;;;4.00;4.00;;;27.66;98191.64;;;;117387;1188;25379;-61
2022/04/28 19:01:55;;;;;;;;;6.00;4.50;;;27.64;98192.18;;;;117812;1187;25788;-62
2022/04/28 19:04:26;;;;;;;;;3.00;2.25;;;27.64;98195.90;;;;117869;1188;25457;-63
2022/04/28 19:06:58;;;;;;;;;2.50;2.00;;;27.62;98197.80;;;;117886;1186;25634;-65
2022/04/28 19:09:29;;;;;;;;;5.50;3.75;;;27.63;98200.06;;;;117531;1189;25694;-63
2022/04/28 19:12:02;;;;;;;;;4.75;3.00;;;27.68;98199.77;;;;117880;1188;25992;-62
2022/04/28 19:15:02;;;;;;;;;7.50;5.50;;;27.66;98201.98;;;;117842;1187;25565;-62
2022/04/28 19:17:37;;;;;;;;;5.00;4.00;;;27.70;98205.74;;;;117821;1186;25667;-64
2022/04/28 19:20:09;;;;;;;;;5.00;5.00;;;27.66;98204.70;;;;117920;1187;24781;-64
2022/04/28 19:22:39;;;;;;;;;7.25;5.75;;;27.64;98210.58;;;;117568;1188;24794;-65
2022/04/28 19:25:12;;;;;;;;;7.00;7.00;;;27.64;98212.15;;;;117384;1189;25685;-63
2022/04/28 19:27:47;;;;;;;;;8.00;8.00;;;27.64;98216.27;;;;117513;1188;24682;-63
2022/04/28 19:30:20;;;;;;;;;14.75;9.00;;;27.65;98220.05;;;;117380;1189;26115;-64
2022/04/28 19:33:02;;;;;;;;;10.67;8.00;;;27.66;98220.77;;;;117815;1188;25523;-63
2022/04/28 19:35:38;;;;;;;;;14.50;10.50;;;27.70;98222.20;;;;117367;1189;25227;-64
2022/04/28 19:38:15;;;;;;;;;14.00;8.33;;;27.70;98225.02;;;;117888;1186;25240;-63
2022/04/28 19:40:48;;;;;;;;;14.25;10.00;;;27.72;98226.60;;;;117837;1186;25041;-62
2022/04/28 19:43:22;;;;;;;;;18.00;10.75;;;27.72;98225.88;;;;117477;1187;25649;-65
2022/04/28 19:45:55;;;;;;;;;19.00;10.00;;;27.75;98229.69;;;;117374;1190;25837;-63
2022/04/28 19:48:30;;;;;;;;;18.50;14.25;;;27.79;98229.79;;;;117779;1187;25105;-65
2022/04/28 19:51:10;;;;;;;;;16.50;10.25;;;27.82;98229.64;;;;117347;1189;25655;-62
2022/04/28 19:53:47;;;;;;;;;16.00;11.33;;;27.84;98231.94;;;;117373;1188;25741;-64
2022/04/28 19:56:19;;;;;;;;;17.00;14.50;;;27.84;98234.90;;;;117878;1188;25581;-63
2022/04/28 19:58:49;;;;;;;;;12.33;11.33;;;27.84;98234.98;;;;117839;1188;25652;-64
2022/04/28 20:01:31;;;;;;;;;18.25;11.75;;;27.84;98234.80;;;;117836;1188;25474;-65
2022/04/28 20:04:05;;;;;;;;;16.75;11.25;;;27.86;98238.56;;;;117866;1186;26571;-63
2022/04/28 20:06:41;;;;;;;;;12.50;8.25;;;27.87;98237.41;;;;117781;1188;24853;-63
2022/04/28 20:09:15;;;;;;;;;15.25;9.50;;;27.89;98238.04;;;;117485;1188;25673;-62
2022/04/28 20:11:59;;;;;;;;;18.00;12.75;;;27.92;98238.89;;;;117871;1188;25582;-63
2022/04/28 20:14:29;;;;;;;;;14.00;11.25;;;27.92;98240.25;;;;117860;1187;26180;-64
2022/04/28 20:17:06;;;;;;;;;17.33;12.67;;;27.92;98243.17;;;;117397;1189;24760;-64